createdAt,value
2023-02-21T00:01:50.654Z,75.54
2023-02-21T00:04:35.958Z,75.10
2023-02-21T00:07:21.818Z,74.49
2023-02-21T00:10:07.032Z,74.78
2023-02-21T00:12:52.892Z,75.02
2023-02-21T00:15:40.086Z,74.31
2023-02-21T00:18:25.443Z,74.02
2023-02-21T00:21:10.800Z,73.77
2023-02-21T00:23:56.767Z,74.15
2023-02-21T00:26:42.136Z,74.07
2023-02-21T00:29:27.779Z,73.99
2023-02-21T00:32:15.543Z,74.22
2023-02-21T00:35:01.685Z,75.05
2023-02-21T00:37:47.672Z,75.75
2023-02-21T00:40:34.879Z,75.97
2023-02-21T00:43:20.684Z,75.98
2023-02-21T00:46:06.741Z,76.70
2023-02-21T00:48:53.586Z,76.13
2023-02-21T00:51:39.056Z,76.83
2023-02-21T00:54:24.577Z,76.23
2023-02-21T00:57:09.788Z,75.21
2023-02-21T00:59:55.592Z,76.00
2023-02-21T01:02:40.882Z,75.15
2023-02-21T01:05:28.146Z,73.81
2023-02-21T01:08:15.134Z,75.03
2023-02-21T01:11:00.566Z,73.53
2023-02-21T01:13:47.148Z,73.48
2023-02-21T01:16:32.780Z,72.90
2023-02-21T01:19:18.148Z,73.69
2023-02-21T01:22:05.165Z,73.55
2023-02-21T01:24:50.442Z,74.04
2023-02-21T01:27:36.351Z,74.61
2023-02-21T01:30:23.360Z,75.24
2023-02-21T01:33:08.725Z,75.68
2023-02-21T01:35:54.051Z,74.71
2023-02-21T01:38:41.947Z,75.95
2023-02-21T01:41:27.895Z,75.27
2023-02-21T01:44:18.335Z,76.13
2023-02-21T01:47:03.839Z,76.91
2023-02-21T01:49:52.268Z,75.07
2023-02-21T01:52:38.349Z,75.53
2023-02-21T01:55:26.559Z,75.24
2023-02-21T01:58:14.063Z,75.00
2023-02-21T02:01:01.241Z,75.56
2023-02-21T02:03:47.497Z,75.32
2023-02-21T02:06:35.447Z,74.42
2023-02-21T02:09:32.943Z,74.92
2023-02-21T02:12:24.183Z,74.91
2023-02-21T02:15:16.003Z,75.11
2023-02-21T02:18:11.220Z,75.77
2023-02-21T02:21:12.877Z,75.82
2023-02-21T02:24:01.233Z,75.58
2023-02-21T02:26:58.164Z,77.52
2023-02-21T02:29:48.022Z,78.50
2023-02-21T02:32:40.319Z,82.16
2023-02-21T02:35:13.855Z,84.11
2023-02-21T02:37:50.427Z,85.72
2023-02-21T02:40:28.985Z,88.92
2023-02-21T02:43:07.562Z,90.35
2023-02-21T02:45:40.589Z,93.04
2023-02-21T02:48:16.412Z,94.77
2023-02-21T02:50:48.636Z,94.82
2023-02-21T02:53:20.549Z,96.45
2023-02-21T02:55:53.243Z,96.77
2023-02-21T02:58:23.757Z,96.98
2023-02-21T03:01:03.720Z,97.92
2023-02-21T03:03:52.930Z,98.24
2023-02-21T03:06:32.414Z,98.77
2023-02-21T03:09:08.933Z,100.00
2023-02-21T03:11:43.541Z,99.35
2023-02-21T03:14:16.129Z,99.37
2023-02-21T03:16:49.631Z,99.46
2023-02-21T03:19:20.160Z,100.00
2023-02-21T03:21:53.461Z,99.76
2023-02-21T03:24:24.279Z,100.00
2023-02-21T03:26:57.803Z,100.00
2023-02-21T03:29:47.721Z,100.00
2023-02-21T03:32:20.960Z,100.00
2023-02-21T03:34:49.330Z,100.00
2023-02-21T03:37:29.779Z,100.00
2023-02-21T03:39:58.027Z,100.00
2023-02-21T03:42:26.240Z,100.00
2023-02-21T03:44:54.789Z,100.00
2023-02-21T03:47:23.770Z,100.00
2023-02-21T03:49:51.869Z,100.00
2023-02-21T03:52:21.358Z,100.00
2023-02-21T03:54:49.476Z,100.00
2023-02-21T03:57:20.919Z,100.00
2023-02-21T03:59:51.151Z,100.00
2023-02-21T04:02:19.913Z,100.00
2023-02-21T04:04:48.823Z,100.00
2023-02-21T04:07:22.209Z,100.00
2023-02-21T04:09:51.332Z,100.00
2023-02-21T04:12:30.798Z,100.00
2023-02-21T04:14:59.284Z,100.00
2023-02-21T04:17:28.137Z,100.00
2023-02-21T04:19:57.369Z,100.00
2023-02-21T04:22:27.629Z,100.00
2023-02-21T04:24:55.938Z,100.00
2023-02-21T04:27:27.117Z,100.00
2023-02-21T04:29:57.489Z,100.00
2023-02-21T04:32:25.743Z,100.00
2023-02-21T04:34:54.325Z,100.00
2023-02-21T04:37:22.629Z,100.00
2023-02-21T04:39:52.360Z,100.00
2023-02-21T04:42:20.544Z,100.00
2023-02-21T04:44:59.410Z,100.00
2023-02-21T04:47:29.069Z,100.00
2023-02-21T04:49:57.234Z,100.00
2023-02-21T04:52:25.682Z,100.00
2023-02-21T04:54:55.205Z,100.00
2023-02-21T04:57:23.459Z,100.00
2023-02-21T04:59:58.055Z,100.00
2023-02-21T05:02:26.304Z,100.00
2023-02-21T05:04:54.778Z,100.00
2023-02-21T05:07:24.091Z,100.00
2023-02-21T05:09:54.370Z,100.00
2023-02-21T05:12:22.479Z,100.00
2023-02-21T05:14:50.534Z,100.00
2023-02-21T05:17:18.589Z,100.00
2023-02-21T05:19:47.878Z,100.00
2023-02-21T05:22:20.591Z,100.00
2023-02-21T05:24:49.580Z,100.00
2023-02-21T05:27:20.717Z,100.00
2023-02-21T05:29:49.868Z,100.00
2023-02-21T05:32:19.005Z,100.00
2023-02-21T05:34:47.933Z,100.00
2023-02-21T05:37:16.296Z,100.00
2023-02-21T05:39:44.764Z,100.00
2023-02-21T05:42:12.843Z,100.00
2023-02-21T05:44:44.607Z,100.00
2023-02-21T05:47:13.234Z,100.00
2023-02-21T05:49:41.286Z,100.00
2023-02-21T05:52:12.011Z,100.00
2023-02-21T05:54:40.227Z,100.00
2023-02-21T05:57:08.398Z,100.00
2023-02-21T05:59:36.607Z,100.00
2023-02-21T06:02:06.036Z,100.00
2023-02-21T06:04:34.128Z,100.00
2023-02-21T06:07:02.237Z,100.00
2023-02-21T06:09:31.082Z,100.00
2023-02-21T06:11:59.303Z,100.00
2023-02-21T06:14:27.890Z,100.00
2023-02-21T06:16:56.032Z,100.00
2023-02-21T06:19:25.578Z,100.00
2023-02-21T06:21:53.601Z,100.00
2023-02-21T06:24:21.726Z,100.00
2023-02-21T06:26:49.760Z,100.00
2023-02-21T06:29:17.969Z,100.00
2023-02-21T06:31:46.037Z,100.00
2023-02-21T06:34:14.535Z,100.00
2023-02-21T06:36:43.918Z,100.00
2023-02-21T06:39:12.038Z,100.00
2023-02-21T06:41:40.179Z,100.00
2023-02-21T06:44:08.484Z,100.00
2023-02-21T06:46:38.235Z,100.00
2023-02-21T06:49:06.621Z,100.00
2023-02-21T06:51:36.290Z,100.00
2023-02-21T06:54:07.945Z,100.00
2023-02-21T06:56:36.431Z,100.00
2023-02-21T06:59:05.253Z,100.00
2023-02-21T07:01:33.416Z,100.00
2023-02-21T07:04:01.613Z,100.00
2023-02-21T07:06:30.127Z,100.00
2023-02-21T07:08:58.312Z,100.00
2023-02-21T07:11:35.709Z,100.00
2023-02-21T07:14:03.994Z,100.00
2023-02-21T07:16:32.282Z,100.00
2023-02-21T07:19:00.415Z,100.00
2023-02-21T07:21:28.864Z,100.00
2023-02-21T07:23:57.540Z,100.00
2023-02-21T07:26:26.992Z,100.00
2023-02-21T07:28:55.190Z,100.00
2023-02-21T07:31:23.568Z,100.00
2023-02-21T07:33:51.827Z,100.00
2023-02-21T07:36:19.913Z,100.00
2023-02-21T07:38:47.982Z,100.00
2023-02-21T07:41:17.384Z,100.00
2023-02-21T07:43:46.950Z,100.00
2023-02-21T07:46:17.982Z,100.00
2023-02-21T07:48:46.303Z,100.00
2023-02-21T07:51:14.801Z,100.00
2023-02-21T07:53:42.992Z,100.00
2023-02-21T07:56:11.166Z,100.00
2023-02-21T07:58:39.467Z,100.00
2023-02-21T08:01:09.341Z,100.00
2023-02-21T08:03:37.973Z,100.00
2023-02-21T08:06:06.571Z,100.00
2023-02-21T08:08:34.724Z,100.00
2023-02-21T08:11:03.137Z,100.00
2023-02-21T08:13:31.231Z,100.00
2023-02-21T08:15:59.345Z,100.00
2023-02-21T08:18:28.855Z,100.00
2023-02-21T08:20:57.933Z,100.00
2023-02-21T08:23:26.401Z,100.00
2023-02-21T08:25:54.424Z,100.00
2023-02-21T08:28:22.560Z,100.00
2023-02-21T08:30:50.586Z,100.00
2023-02-21T08:33:18.641Z,100.00
2023-02-21T08:35:48.107Z,100.00
2023-02-21T08:38:16.450Z,100.00
2023-02-21T08:40:45.338Z,100.00
2023-02-21T08:43:13.410Z,100.00
2023-02-21T08:45:41.447Z,100.00
2023-02-21T08:48:09.552Z,100.00
2023-02-21T08:50:37.723Z,100.00
2023-02-21T08:53:07.229Z,100.00
2023-02-21T08:55:35.294Z,100.00
2023-02-21T08:58:03.387Z,100.00
2023-02-21T09:00:31.423Z,100.00
2023-02-21T09:02:59.989Z,100.00
2023-02-21T09:05:29.967Z,100.00
2023-02-21T09:08:01.820Z,100.00
2023-02-21T09:10:34.108Z,100.00
2023-02-21T09:13:02.601Z,100.00
2023-02-21T09:15:30.644Z,100.00
2023-02-21T09:17:58.759Z,100.00
2023-02-21T09:20:27.948Z,100.00
2023-02-21T09:22:56.400Z,100.00
2023-02-21T09:25:26.226Z,100.00
2023-02-21T09:27:55.767Z,100.00
2023-02-21T09:30:26.958Z,100.00
2023-02-21T09:32:55.982Z,100.00
2023-02-21T09:35:24.435Z,100.00
2023-02-21T09:37:52.929Z,100.00
2023-02-21T09:40:33.669Z,100.00
2023-02-21T09:43:05.510Z,100.00
2023-02-21T09:45:37.619Z,99.67
2023-02-21T09:48:10.554Z,99.86
2023-02-21T09:50:43.146Z,99.69
2023-02-21T09:53:14.444Z,99.51
2023-02-21T09:55:43.084Z,98.28
2023-02-21T09:58:15.631Z,98.77
2023-02-21T10:00:46.727Z,97.95
2023-02-21T10:03:42.707Z,99.67
2023-02-21T10:06:18.828Z,99.83
2023-02-21T10:08:53.700Z,99.40
2023-02-21T10:11:35.682Z,98.22
2023-02-21T10:14:18.426Z,94.95
2023-02-21T10:16:54.830Z,94.07
2023-02-21T10:19:30.024Z,93.08
2023-02-21T10:21:59.938Z,92.25
2023-02-21T10:24:29.897Z,90.61
2023-02-21T10:27:02.170Z,89.46
2023-02-21T10:29:40.489Z,88.39
2023-02-21T10:32:09.984Z,87.74
2023-02-21T10:34:38.189Z,86.94
2023-02-21T10:37:22.125Z,86.15
2023-02-21T10:39:54.418Z,82.37
2023-02-21T10:42:33.805Z,83.01
2023-02-21T10:45:04.531Z,80.77
2023-02-21T10:47:43.295Z,80.00
2023-02-21T10:50:13.429Z,81.25
2023-02-21T10:52:49.558Z,80.13
2023-02-21T10:55:31.763Z,79.54
2023-02-21T10:58:08.777Z,79.84
2023-02-21T11:00:41.884Z,77.60
2023-02-21T11:03:23.042Z,78.00
2023-02-21T11:05:52.269Z,80.11
2023-02-21T11:08:36.804Z,83.15
2023-02-21T11:11:04.943Z,84.45
2023-02-21T11:13:36.293Z,84.04
2023-02-21T11:16:16.926Z,86.39
2023-02-21T11:18:45.433Z,89.21
2023-02-21T11:21:15.810Z,92.31
2023-02-21T11:23:54.321Z,91.57
2023-02-21T11:26:22.504Z,94.19
2023-02-21T11:28:50.736Z,95.48
2023-02-21T11:31:28.454Z,95.94
2023-02-21T11:34:00.044Z,97.32
2023-02-21T11:36:30.688Z,97.44
2023-02-21T11:39:05.579Z,98.40
2023-02-21T11:41:38.988Z,97.48
2023-02-21T11:44:25.433Z,94.93
2023-02-21T11:47:02.540Z,92.20
2023-02-21T11:49:43.124Z,90.42
2023-02-21T11:52:15.749Z,92.21
2023-02-21T11:54:45.392Z,91.94
2023-02-21T11:57:21.400Z,91.97
2023-02-21T11:59:57.068Z,91.50
2023-02-21T12:02:54.396Z,92.66
2023-02-21T12:05:34.326Z,92.31
2023-02-21T12:08:18.784Z,92.36
2023-02-21T12:10:55.345Z,93.00
2023-02-21T12:13:30.597Z,94.12
2023-02-21T12:16:10.116Z,93.08
2023-02-21T12:18:54.025Z,93.87
2023-02-21T12:21:41.347Z,95.39
2023-02-21T12:24:27.403Z,94.21
2023-02-21T12:27:03.273Z,94.46
2023-02-21T12:29:49.920Z,94.79
2023-02-21T12:32:44.475Z,95.07
2023-02-21T12:35:42.194Z,93.78
2023-02-21T12:38:16.254Z,92.67
2023-02-21T12:40:55.468Z,92.71
2023-02-21T12:43:37.901Z,91.94
2023-02-21T12:46:17.963Z,92.29
2023-02-21T12:48:57.172Z,92.09
2023-02-21T12:51:32.560Z,91.35
2023-02-21T12:54:04.032Z,92.47
2023-02-21T12:56:39.049Z,91.89
2023-02-21T12:59:14.180Z,92.55
2023-02-21T13:01:48.592Z,90.98
2023-02-21T13:04:26.217Z,89.02
2023-02-21T13:07:00.517Z,86.04
2023-02-21T13:09:35.768Z,82.19
2023-02-21T13:12:09.031Z,80.45
2023-02-21T13:14:42.146Z,77.93
2023-02-21T13:17:14.341Z,77.94
2023-02-21T13:19:49.917Z,76.61
2023-02-21T13:22:40.714Z,77.65
2023-02-21T13:25:22.312Z,75.93
2023-02-21T13:27:57.526Z,75.19
2023-02-21T13:30:39.358Z,73.62
2023-02-21T13:33:08.354Z,74.14
2023-02-21T13:35:39.796Z,73.80
2023-02-21T13:38:12.913Z,73.75
2023-02-21T13:40:51.007Z,74.30
2023-02-21T13:43:25.236Z,74.83
2023-02-21T13:45:53.894Z,73.37
2023-02-21T13:48:26.016Z,74.72
2023-02-21T13:50:55.666Z,74.51
2023-02-21T13:53:27.137Z,73.57
2023-02-21T13:56:14.536Z,73.95
2023-02-21T13:58:45.131Z,75.26
2023-02-21T14:01:42.952Z,76.05
2023-02-21T14:05:03.148Z,77.86
2023-02-21T14:08:01.088Z,76.29
2023-02-21T14:10:43.104Z,78.71
2023-02-21T14:13:24.885Z,78.05
2023-02-21T14:16:00.880Z,79.26
2023-02-21T14:18:31.716Z,79.58
2023-02-21T14:21:01.065Z,80.37
2023-02-21T14:23:41.124Z,81.67
2023-02-21T14:26:44.126Z,81.83
2023-02-21T14:29:16.944Z,82.00
2023-02-21T14:31:58.393Z,82.75
2023-02-21T14:34:33.957Z,80.58
2023-02-21T14:37:05.766Z,79.94
2023-02-21T14:39:37.703Z,80.22
2023-02-21T14:42:29.412Z,81.82
2023-02-21T14:45:16.260Z,81.31
2023-02-21T14:48:21.070Z,81.38
2023-02-21T14:51:20.274Z,81.56
2023-02-21T14:54:12.089Z,79.59
2023-02-21T14:57:02.567Z,80.19
2023-02-21T14:59:46.995Z,79.92
2023-02-21T15:02:29.242Z,77.61
2023-02-21T15:05:08.469Z,77.56
2023-02-21T15:07:46.462Z,76.46
2023-02-21T15:10:18.683Z,75.73
2023-02-21T15:12:49.951Z,76.63
2023-02-21T15:15:23.768Z,77.55
2023-02-21T15:18:07.502Z,78.37
2023-02-21T15:20:37.138Z,78.23
2023-02-21T15:23:14.495Z,77.83
2023-02-21T15:25:43.188Z,78.92
2023-02-21T15:28:27.606Z,77.95
2023-02-21T15:31:03.412Z,79.90
2023-02-21T15:33:34.914Z,79.78
2023-02-21T15:36:06.971Z,80.12
2023-02-21T15:38:39.551Z,80.65
2023-02-21T15:41:11.184Z,81.69
2023-02-21T15:43:47.537Z,79.34
2023-02-21T15:46:22.636Z,77.89
2023-02-21T15:48:52.012Z,79.56
2023-02-21T15:51:20.655Z,77.92
2023-02-21T15:54:09.864Z,75.62
2023-02-21T15:56:38.129Z,74.70
2023-02-21T15:59:11.604Z,74.33
2023-02-21T16:01:41.875Z,73.91
2023-02-21T16:04:18.602Z,74.34
2023-02-21T16:06:50.293Z,74.42
2023-02-21T16:09:30.293Z,76.00
2023-02-21T16:12:03.179Z,76.05
2023-02-21T16:14:38.651Z,75.48
2023-02-21T16:17:28.411Z,75.55
2023-02-21T16:19:59.541Z,77.24
2023-02-21T16:22:38.765Z,76.04
2023-02-21T16:25:19.917Z,76.03
2023-02-21T16:27:51.279Z,76.21
2023-02-21T16:30:23.584Z,76.81
2023-02-21T16:32:55.167Z,77.17
2023-02-21T16:35:25.891Z,77.38
2023-02-21T16:37:56.522Z,74.69
2023-02-21T16:40:26.663Z,74.37
2023-02-21T16:42:56.955Z,73.77
2023-02-21T16:45:25.791Z,74.37
2023-02-21T16:47:59.663Z,72.31
2023-02-21T16:50:30.309Z,72.27
2023-02-21T16:52:59.126Z,72.29
2023-02-21T16:55:27.839Z,73.67
2023-02-21T16:57:59.882Z,75.40
2023-02-21T17:00:31.038Z,75.89
2023-02-21T17:03:01.647Z,75.72
2023-02-21T17:05:29.766Z,75.38
2023-02-21T17:07:58.686Z,75.55
2023-02-21T17:10:26.857Z,75.36
2023-02-21T17:12:55.179Z,75.77
2023-02-21T17:15:23.908Z,75.19
2023-02-21T17:17:53.864Z,76.05
2023-02-21T17:20:24.144Z,75.92
2023-02-21T17:22:52.751Z,76.27
2023-02-21T17:25:22.374Z,76.41
2023-02-21T17:27:50.910Z,76.50
2023-02-21T17:30:20.800Z,76.02
2023-02-21T17:32:49.071Z,75.87
2023-02-21T17:35:19.403Z,75.35
2023-02-21T17:37:51.692Z,75.73
2023-02-21T17:40:21.625Z,75.72
2023-02-21T17:42:49.918Z,75.59
2023-02-21T17:45:20.286Z,75.84
2023-02-21T17:47:49.727Z,76.47
2023-02-21T17:50:18.534Z,76.06
2023-02-21T17:52:48.057Z,75.86
2023-02-21T17:55:28.850Z,75.88
2023-02-21T17:57:59.858Z,76.75
2023-02-21T18:00:33.824Z,76.06
2023-02-21T18:03:14.366Z,75.69
2023-02-21T18:06:00.458Z,77.48
2023-02-21T18:08:33.305Z,78.14
2023-02-21T18:11:01.472Z,77.69
2023-02-21T18:13:29.567Z,77.12
2023-02-21T18:15:59.707Z,76.56
2023-02-21T18:18:27.846Z,78.40
2023-02-21T18:20:55.889Z,78.75
2023-02-21T18:23:23.976Z,78.60
2023-02-21T18:25:54.496Z,79.35
2023-02-21T18:28:22.748Z,80.31
2023-02-21T18:30:51.996Z,80.47
2023-02-21T18:33:20.369Z,80.32
2023-02-21T18:35:48.795Z,81.42
2023-02-21T18:38:17.735Z,80.67
2023-02-21T18:40:46.036Z,81.63
2023-02-21T18:43:20.584Z,81.55
2023-02-21T18:45:50.111Z,80.32
2023-02-21T18:48:18.904Z,81.02
2023-02-21T18:50:47.192Z,81.07
2023-02-21T18:53:16.236Z,80.80
2023-02-21T18:55:44.281Z,80.82
2023-02-21T18:58:12.786Z,80.57
2023-02-21T19:00:42.728Z,81.39
2023-02-21T19:03:13.109Z,80.46
2023-02-21T19:05:41.166Z,79.99
2023-02-21T19:08:09.238Z,79.99
2023-02-21T19:10:37.300Z,80.42
2023-02-21T19:13:05.468Z,80.01
2023-02-21T19:15:33.894Z,79.08
2023-02-21T19:18:03.353Z,77.62
2023-02-21T19:20:31.604Z,77.67
2023-02-21T19:22:59.731Z,76.72
2023-02-21T19:25:28.298Z,76.20
2023-02-21T19:28:00.618Z,77.22
2023-02-21T19:30:32.965Z,77.80
2023-02-21T19:33:04.063Z,78.18
2023-02-21T19:35:33.900Z,79.01
2023-02-21T19:38:04.816Z,79.15
2023-02-21T19:40:33.756Z,80.14
2023-02-21T19:43:01.908Z,79.39
2023-02-21T19:45:30.276Z,79.06
2023-02-21T19:47:58.814Z,78.45
2023-02-21T19:50:30.845Z,77.23
2023-02-21T19:52:59.887Z,76.60
2023-02-21T19:55:30.368Z,75.57
2023-02-21T19:57:58.665Z,74.98
2023-02-21T20:00:28.049Z,74.14
2023-02-21T20:02:56.436Z,74.48
2023-02-21T20:05:24.526Z,73.96
2023-02-21T20:07:54.193Z,73.73
2023-02-21T20:10:25.466Z,74.35
2023-02-21T20:12:54.025Z,75.70
2023-02-21T20:15:22.199Z,75.21
2023-02-21T20:17:50.901Z,74.22
2023-02-21T20:20:19.180Z,75.58
2023-02-21T20:22:47.360Z,75.32
2023-02-21T20:25:16.874Z,73.94
2023-02-21T20:27:45.008Z,74.33
2023-02-21T20:30:14.412Z,74.10
2023-02-21T20:32:42.767Z,74.29
2023-02-21T20:35:12.728Z,74.21
2023-02-21T20:37:40.787Z,74.76
2023-02-21T20:40:11.133Z,74.00
2023-02-21T20:42:40.603Z,74.71
2023-02-21T20:45:10.652Z,73.85
2023-02-21T20:47:39.191Z,73.87
2023-02-21T20:50:08.562Z,73.61
2023-02-21T20:52:37.012Z,74.45
2023-02-21T20:55:05.908Z,74.85
2023-02-21T20:57:34.815Z,75.38
2023-02-21T21:00:09.131Z,75.61
2023-02-21T21:02:37.371Z,75.48
2023-02-21T21:05:10.104Z,75.22
2023-02-21T21:07:38.135Z,75.12
2023-02-21T21:10:09.484Z,74.29
2023-02-21T21:12:37.608Z,75.16
2023-02-21T21:15:09.438Z,75.23
2023-02-21T21:17:38.545Z,76.22
2023-02-21T21:20:14.250Z,76.27
2023-02-21T21:22:42.849Z,75.00
2023-02-21T21:25:12.038Z,75.03
2023-02-21T21:27:42.435Z,75.59
2023-02-21T21:30:18.218Z,76.13
2023-02-21T21:32:46.717Z,77.26
2023-02-21T21:35:17.438Z,77.38
2023-02-21T21:37:45.584Z,77.69
2023-02-21T21:40:17.269Z,77.30
2023-02-21T21:42:46.859Z,76.55
2023-02-21T21:45:21.663Z,77.40
2023-02-21T21:47:52.617Z,77.01
2023-02-21T21:50:22.220Z,78.14
2023-02-21T21:52:52.357Z,77.90
2023-02-21T21:55:24.445Z,77.83
2023-02-21T21:57:54.486Z,77.84
2023-02-21T22:00:26.088Z,78.08
2023-02-21T22:02:57.531Z,78.73
2023-02-21T22:05:26.682Z,78.93
2023-02-21T22:07:55.026Z,79.50
2023-02-21T22:10:25.731Z,78.59
2023-02-21T22:12:56.744Z,78.45
2023-02-21T22:15:28.162Z,78.22
2023-02-21T22:18:02.001Z,78.35
2023-02-21T22:20:31.980Z,78.42
2023-02-21T22:23:00.162Z,77.49
2023-02-21T22:25:30.469Z,77.80
2023-02-21T22:28:00.555Z,77.98
2023-02-21T22:30:30.055Z,78.54
2023-02-21T22:32:58.135Z,79.11
2023-02-21T22:35:28.565Z,78.52
2023-02-21T22:37:58.856Z,77.71
2023-02-21T22:40:29.898Z,78.03
2023-02-21T22:43:00.439Z,78.07
2023-02-21T22:45:33.288Z,77.66
2023-02-21T22:48:04.121Z,77.31
2023-02-21T22:50:36.956Z,77.88
2023-02-21T22:53:08.377Z,77.64
2023-02-21T22:55:38.257Z,77.90
2023-02-21T22:58:09.318Z,77.83
2023-02-21T23:00:39.281Z,78.87
2023-02-21T23:03:13.203Z,79.05
2023-02-21T23:05:43.786Z,79.71
2023-02-21T23:08:12.951Z,79.60
2023-02-21T23:10:41.511Z,79.25
2023-02-21T23:13:14.114Z,79.48
2023-02-21T23:15:44.365Z,79.47
2023-02-21T23:18:18.168Z,79.41
2023-02-21T23:20:46.256Z,80.25
2023-02-21T23:23:15.217Z,79.57
2023-02-21T23:25:43.274Z,80.20
2023-02-21T23:28:14.989Z,81.05
2023-02-21T23:30:46.167Z,81.13
2023-02-21T23:33:16.300Z,81.37
2023-02-21T23:35:45.563Z,80.38
2023-02-21T23:38:16.526Z,81.96
2023-02-21T23:40:45.942Z,81.53
2023-02-21T23:43:16.128Z,81.06
2023-02-21T23:45:48.356Z,82.23
2023-02-21T23:48:16.628Z,82.30
2023-02-21T23:50:46.671Z,80.91
2023-02-21T23:53:17.739Z,81.68
2023-02-21T23:55:46.814Z,82.88
2023-02-21T23:58:17.094Z,84.00
